createdAt,value
2023-03-06T04:59:58.831Z,5.10
2023-03-06T05:02:25.421Z,5.10
2023-03-06T05:04:52.011Z,5.20
2023-03-06T05:07:18.560Z,4.97
2023-03-06T05:09:45.053Z,4.57
2023-03-06T05:12:11.579Z,5.45
2023-03-06T05:14:38.167Z,5.30
2023-03-06T05:17:04.718Z,4.93
2023-03-06T05:19:31.280Z,5.30
2023-03-06T05:21:57.790Z,4.75
2023-03-06T05:24:24.314Z,5.20
2023-03-06T05:26:50.845Z,5.73
2023-03-06T05:29:17.313Z,5.47
2023-03-06T05:31:43.963Z,5.53
2023-03-06T05:34:13.881Z,5.03
2023-03-06T05:36:40.478Z,5.28
2023-03-06T05:39:07.686Z,5.80
2023-03-06T05:41:34.231Z,5.50
2023-03-06T05:44:00.746Z,5.30
2023-03-06T05:46:27.410Z,6.05
2023-03-06T05:48:57.907Z,4.95
2023-03-06T05:51:25.264Z,5.67
2023-03-06T05:53:51.718Z,5.32
2023-03-06T05:56:19.105Z,5.38
2023-03-06T07:13:26.790Z,6.70
2023-03-06T07:15:55.856Z,6.38
2023-03-06T07:18:22.461Z,5.20
2023-03-06T07:20:49.007Z,5.85
2023-03-06T07:23:15.556Z,6.47
2023-03-06T07:25:42.228Z,6.13
2023-03-06T07:28:08.851Z,5.93
2023-03-06T07:30:35.744Z,7.05
2023-03-06T07:33:02.493Z,5.88
2023-03-06T07:35:31.399Z,5.93
2023-03-06T07:37:58.304Z,5.75
2023-03-06T07:40:27.909Z,6.05
2023-03-06T07:42:59.195Z,5.75
2023-03-06T07:45:32.196Z,5.68
2023-03-06T07:47:58.752Z,6.63
2023-03-06T07:50:25.322Z,5.82
2023-03-06T07:52:52.359Z,6.10
2023-03-06T07:55:21.440Z,6.25
2023-03-06T07:57:51.350Z,7.32
2023-03-06T08:00:23.973Z,5.47
2023-03-06T08:02:50.586Z,5.78
2023-03-06T08:05:17.322Z,5.88
2023-03-06T08:07:45.233Z,5.82
2023-03-06T08:10:16.558Z,6.68
2023-03-06T08:12:45.486Z,6.63
2023-03-06T08:15:12.855Z,6.68
2023-03-06T08:17:39.550Z,6.10
2023-03-06T08:20:07.634Z,5.38
2023-03-06T08:22:34.913Z,5.85
2023-03-06T08:25:08.003Z,5.13
2023-03-06T08:27:35.516Z,6.80
2023-03-06T08:30:05.112Z,6.20
2023-03-06T08:32:31.757Z,6.97
2023-03-06T08:34:58.366Z,6.10
2023-03-06T08:37:24.933Z,6.53
2023-03-06T08:39:51.553Z,6.45
2023-03-06T08:42:18.206Z,6.18
2023-03-06T08:44:44.902Z,6.57
2023-03-06T08:47:16.028Z,6.38
2023-03-06T08:49:42.664Z,6.87
2023-03-06T08:52:09.411Z,7.30
2023-03-06T08:54:36.140Z,7.15
2023-03-06T08:57:05.258Z,7.70
2023-03-06T08:59:34.061Z,6.80
2023-03-06T09:02:01.631Z,7.00
2023-03-06T09:04:30.223Z,6.50
2023-03-06T09:06:56.770Z,8.02
2023-03-06T09:09:23.350Z,7.00
2023-03-06T09:11:51.266Z,7.43
2023-03-06T09:14:20.032Z,6.63
2023-03-06T09:16:46.656Z,6.72
2023-03-06T09:19:13.323Z,7.03
2023-03-06T09:21:41.753Z,6.55
2023-03-06T09:24:10.866Z,6.88
2023-03-06T09:26:46.296Z,7.30
2023-03-06T09:29:17.174Z,8.57
2023-03-06T09:31:44.703Z,7.13
2023-03-06T09:34:11.281Z,7.45
2023-03-06T09:36:53.326Z,7.65
2023-03-06T09:39:24.370Z,7.33
2023-03-06T09:41:53.513Z,8.52
2023-03-06T09:44:26.192Z,6.68
2023-03-06T09:47:13.660Z,8.65
2023-03-06T09:49:52.451Z,7.35
2023-03-06T09:52:33.690Z,7.73
2023-03-06T09:55:12.184Z,8.48
2023-03-06T09:57:50.527Z,8.27
2023-03-06T10:00:46.279Z,8.32
2023-03-06T10:03:26.379Z,7.80
2023-03-06T10:05:57.930Z,7.97
2023-03-06T10:08:48.751Z,7.78
2023-03-06T10:11:20.252Z,6.95
2023-03-06T10:14:12.608Z,8.50
2023-03-06T10:16:40.361Z,7.68
2023-03-06T10:19:21.641Z,7.17
2023-03-06T10:21:59.883Z,8.35
2023-03-06T10:24:39.593Z,8.10
2023-03-06T10:27:32.967Z,8.13
2023-03-06T10:30:44.668Z,7.60
2023-03-06T10:33:26.210Z,7.60
2023-03-06T10:35:54.979Z,7.70
2023-03-06T10:38:37.570Z,8.88
2023-03-06T10:41:07.358Z,8.57
2023-03-06T10:43:36.500Z,8.02
2023-03-06T10:46:05.357Z,9.20
2023-03-06T10:48:36.024Z,8.15
2023-03-06T10:51:23.610Z,9.98
2023-03-06T10:54:17.614Z,8.40
2023-03-06T10:56:46.317Z,9.73
2023-03-06T10:59:17.798Z,8.10
2023-03-06T11:01:51.817Z,8.50
2023-03-06T11:04:32.169Z,9.18
2023-03-06T11:07:18.145Z,8.32
2023-03-06T11:10:08.002Z,8.20
2023-03-06T11:12:36.776Z,9.47
2023-03-06T11:15:17.680Z,8.73
2023-03-06T11:18:01.046Z,8.93
2023-03-06T11:20:52.545Z,9.75
2023-03-06T11:23:19.480Z,8.65
2023-03-06T11:25:56.231Z,9.53
2023-03-06T11:28:34.842Z,9.00
2023-03-06T11:31:34.122Z,8.25
2023-03-06T11:34:19.462Z,9.80
2023-03-06T11:37:03.486Z,8.95
2023-03-06T11:39:36.052Z,8.97
2023-03-06T11:42:15.819Z,8.45
2023-03-06T11:44:50.628Z,9.30
2023-03-06T11:47:20.264Z,9.27
2023-03-06T11:50:04.359Z,9.10
2023-03-06T11:52:48.453Z,9.70
2023-03-06T11:55:45.665Z,8.10
2023-03-06T11:58:38.311Z,8.75
2023-03-06T12:01:11.091Z,8.00
2023-03-06T12:03:57.895Z,9.57
2023-03-06T12:06:30.519Z,9.13
2023-03-06T12:09:22.459Z,9.05
2023-03-06T12:12:01.236Z,9.45
2023-03-06T12:14:46.755Z,9.50
2023-03-06T12:17:19.001Z,9.35
2023-03-06T12:20:05.193Z,8.77
2023-03-06T12:22:39.923Z,9.65
2023-03-06T12:25:19.429Z,10.77
2023-03-06T12:28:01.869Z,9.68
2023-03-06T12:30:39.345Z,9.43
2023-03-06T12:33:30.016Z,8.93
2023-03-06T12:36:04.216Z,9.68
2023-03-06T12:38:52.519Z,9.10
2023-03-06T12:41:51.473Z,9.55
2023-03-06T12:44:47.069Z,9.25
2023-03-06T12:47:18.385Z,8.77
2023-03-06T12:49:50.708Z,9.45
2023-03-06T12:52:30.290Z,10.25
2023-03-06T12:55:07.553Z,8.85
2023-03-06T12:57:34.184Z,7.85
2023-03-06T13:00:03.828Z,9.90
2023-03-06T13:03:16.401Z,9.90
2023-03-06T13:05:54.958Z,9.85
2023-03-06T13:08:56.909Z,9.88
2023-03-06T13:11:26.574Z,9.85
2023-03-06T13:13:53.402Z,9.87
2023-03-06T13:16:29.374Z,10.10
2023-03-06T13:19:25.754Z,10.07
2023-03-06T13:21:55.326Z,10.20
2023-03-06T13:24:35.638Z,9.07
2023-03-06T13:27:04.855Z,9.27
2023-03-06T13:29:37.528Z,9.43
2023-03-06T13:32:04.106Z,9.63
2023-03-06T13:34:39.852Z,9.30
2023-03-06T13:37:18.708Z,10.57
2023-03-06T13:39:59.770Z,9.80
2023-03-06T13:42:30.143Z,10.88
2023-03-06T13:45:31.883Z,9.93
2023-03-06T13:48:24.492Z,10.45
2023-03-06T13:50:51.503Z,9.50
2023-03-06T13:53:49.126Z,10.67
2023-03-06T13:56:15.624Z,10.45
2023-03-06T13:58:49.407Z,8.88
2023-03-06T14:01:26.055Z,9.85
2023-03-06T14:04:01.655Z,10.55
2023-03-06T14:06:34.427Z,10.57
2023-03-06T14:09:12.937Z,11.18
2023-03-06T14:11:49.420Z,10.43
2023-03-06T14:14:16.562Z,9.93
2023-03-06T14:16:50.680Z,10.80
2023-03-06T14:19:17.949Z,10.47
2023-03-06T14:21:50.110Z,10.40
2023-03-06T14:24:18.988Z,9.93
2023-03-06T14:26:49.453Z,10.32
2023-03-06T14:29:21.512Z,10.55
2023-03-06T14:31:54.549Z,11.50
2023-03-06T14:34:23.145Z,10.30
2023-03-06T14:36:53.065Z,9.82
2023-03-06T14:39:37.043Z,10.48
2023-03-06T14:42:21.897Z,10.38
2023-03-06T14:44:49.577Z,9.83
2023-03-06T14:47:30.864Z,9.77
2023-03-06T14:50:33.558Z,9.80
2023-03-06T14:53:09.194Z,10.40
2023-03-06T14:55:36.248Z,10.52
2023-03-06T14:58:08.284Z,11.00
2023-03-06T15:00:37.323Z,10.82
2023-03-06T15:03:12.627Z,9.18
2023-03-06T15:05:40.420Z,10.48
2023-03-06T15:08:13.030Z,10.90
2023-03-06T15:10:39.626Z,9.50
2023-03-06T15:13:23.362Z,9.90
2023-03-06T15:16:02.042Z,9.50
2023-03-06T15:18:40.632Z,10.25
2023-03-06T15:21:21.202Z,10.10
2023-03-06T15:23:55.639Z,10.77
2023-03-06T15:26:28.037Z,10.25
2023-03-06T15:29:08.140Z,11.15
2023-03-06T15:31:45.564Z,11.00
2023-03-06T15:34:12.292Z,10.50
2023-03-06T15:36:47.400Z,10.63
2023-03-06T15:39:30.531Z,10.23
2023-03-06T15:42:01.010Z,11.25
2023-03-06T15:44:32.195Z,10.02
2023-03-06T15:47:08.398Z,10.13
2023-03-06T15:49:37.508Z,10.00
2023-03-06T15:52:04.740Z,10.43
2023-03-06T15:54:32.917Z,10.25
2023-03-06T15:56:59.688Z,10.07
2023-03-06T15:59:31.266Z,10.52
2023-03-06T16:02:10.903Z,9.57
2023-03-06T16:04:39.564Z,10.30
2023-03-06T16:07:06.155Z,9.98
2023-03-06T16:09:32.898Z,10.27
2023-03-06T16:11:59.538Z,11.05
2023-03-06T16:14:26.221Z,9.83
2023-03-06T16:16:54.345Z,9.90
2023-03-06T16:19:27.422Z,10.00
2023-03-06T16:21:55.196Z,10.27
2023-03-06T16:24:21.987Z,9.93
2023-03-06T16:26:57.149Z,9.83
2023-03-06T16:29:25.673Z,9.70
2023-03-06T16:31:55.239Z,11.05
2023-03-06T16:34:22.091Z,9.77
2023-03-06T16:36:49.479Z,9.73
2023-03-06T16:39:22.005Z,9.20
2023-03-06T16:41:51.372Z,9.07
2023-03-06T16:44:18.148Z,9.27
2023-03-06T16:46:47.083Z,9.85
2023-03-06T16:49:17.672Z,10.00
2023-03-06T16:51:45.200Z,9.60
2023-03-06T16:54:14.157Z,11.13
2023-03-06T16:56:41.232Z,11.85
2023-03-06T16:59:08.012Z,10.35
2023-03-06T17:01:34.641Z,10.43
2023-03-06T17:04:01.243Z,11.13
2023-03-06T17:06:28.349Z,10.70
2023-03-06T17:08:57.860Z,10.32
2023-03-06T17:11:24.985Z,11.48
2023-03-06T17:13:51.471Z,11.85
2023-03-06T17:16:18.049Z,10.40
2023-03-06T17:18:45.649Z,12.00
2023-03-06T17:21:12.683Z,11.52
2023-03-06T17:23:39.196Z,10.60
2023-03-06T17:26:07.974Z,10.25
2023-03-06T17:28:37.722Z,11.63
2023-03-06T17:31:26.614Z,10.32
2023-03-06T17:33:57.157Z,10.57
2023-03-06T17:36:23.734Z,10.65
2023-03-06T17:38:53.765Z,10.38
2023-03-06T17:41:24.350Z,10.60
2023-03-06T17:43:52.170Z,10.60
2023-03-06T17:46:19.150Z,12.30
2023-03-06T17:48:48.127Z,10.70
2023-03-06T17:51:14.713Z,10.07
2023-03-06T17:53:41.417Z,10.70
2023-03-06T17:56:10.789Z,10.48
2023-03-06T17:58:37.384Z,10.23
2023-03-06T18:01:18.480Z,10.00
2023-03-06T18:03:47.416Z,10.35
2023-03-06T18:06:14.154Z,9.80
2023-03-06T18:08:43.693Z,10.45
2023-03-06T18:11:10.611Z,9.55
2023-03-06T18:13:39.675Z,10.98
2023-03-06T18:16:07.394Z,10.82
2023-03-06T18:18:34.120Z,10.27
2023-03-06T18:21:09.678Z,11.13
2023-03-06T18:23:39.984Z,11.85
2023-03-06T18:26:13.686Z,11.57
2023-03-06T18:28:42.565Z,10.18
2023-03-06T18:31:25.866Z,11.50
2023-03-06T18:33:54.956Z,10.50
2023-03-06T18:36:23.408Z,10.75
2023-03-06T18:38:50.295Z,10.00
2023-03-06T18:41:18.605Z,12.38
2023-03-06T18:43:51.398Z,11.30
2023-03-06T18:46:17.917Z,10.48
2023-03-06T18:48:44.395Z,10.55
2023-03-06T18:51:12.135Z,9.90
2023-03-06T18:53:40.095Z,10.70
2023-03-06T18:56:07.959Z,10.03
2023-03-06T18:58:34.686Z,10.15
2023-03-06T19:01:08.902Z,9.57
2023-03-06T19:03:35.835Z,9.88
2023-03-06T19:06:20.858Z,9.82
2023-03-06T19:08:47.446Z,10.07
2023-03-06T19:11:16.609Z,9.57
2023-03-06T19:13:43.615Z,10.52
2023-03-06T19:16:17.648Z,9.18
2023-03-06T19:18:44.230Z,10.43
2023-03-06T19:21:21.276Z,10.90
2023-03-06T19:23:47.939Z,9.82
2023-03-06T19:26:14.549Z,8.98
2023-03-06T19:28:42.405Z,10.52
2023-03-06T19:31:13.252Z,9.05
2023-03-06T19:33:40.282Z,10.30
2023-03-06T19:36:08.981Z,13.00
2023-03-06T19:38:35.582Z,10.23
2023-03-06T19:41:02.322Z,10.77
2023-03-06T19:43:29.938Z,9.48
2023-03-06T19:45:56.978Z,10.03
2023-03-06T19:48:24.127Z,11.02
2023-03-06T19:50:50.645Z,10.38
2023-03-06T19:53:17.156Z,11.77
2023-03-06T19:55:43.622Z,10.68
2023-03-06T19:58:13.529Z,11.33
2023-03-06T20:00:41.478Z,11.02
2023-03-06T20:03:07.962Z,10.75
2023-03-06T20:05:34.485Z,11.60
2023-03-06T20:08:01.019Z,11.35
2023-03-06T20:10:27.569Z,10.37
2023-03-06T20:12:56.541Z,10.82
2023-03-06T20:15:23.103Z,11.65
2023-03-06T20:17:49.638Z,11.23
2023-03-06T20:20:16.350Z,11.98
2023-03-06T20:22:42.921Z,11.43
2023-03-06T20:25:09.632Z,11.48
2023-03-06T20:27:36.255Z,10.75
2023-03-06T20:30:03.325Z,11.90
2023-03-06T20:32:29.979Z,12.82
2023-03-06T20:34:56.478Z,11.90
2023-03-06T20:37:23.017Z,12.15
2023-03-06T20:39:49.603Z,13.27
2023-03-06T20:42:17.732Z,13.20
2023-03-06T20:44:44.284Z,12.93
2023-03-06T20:47:10.808Z,12.77
2023-03-06T20:49:38.241Z,14.45
2023-03-06T20:52:04.829Z,13.20
2023-03-06T20:54:31.358Z,12.35
2023-03-06T20:56:57.979Z,13.10
2023-03-06T20:59:27.482Z,13.50
2023-03-06T21:01:54.139Z,13.52
2023-03-06T21:04:20.650Z,13.82
2023-03-06T21:06:47.362Z,13.32
2023-03-06T21:09:16.210Z,13.07
